createdAt,value
2022-08-25T00:00:23.207Z,19.12
2022-08-25T00:01:31.776Z,19.13
2022-08-25T00:02:34.302Z,19.19
2022-08-25T00:03:39.602Z,19.18
2022-08-25T00:04:43.448Z,19.17
2022-08-25T00:05:46.130Z,19.14
2022-08-25T00:06:49.160Z,19.15
2022-08-25T00:07:50.643Z,19.15
2022-08-25T00:08:52.581Z,19.13
2022-08-25T00:09:54.034Z,19.13
2022-08-25T00:11:03.127Z,19.15
2022-08-25T00:12:06.400Z,19.11
2022-08-25T00:13:08.863Z,19.09
2022-08-25T00:14:14.982Z,18.98
2022-08-25T00:15:16.518Z,19.05
2022-08-25T00:16:20.447Z,19.04
2022-08-25T00:17:22.069Z,19.02
2022-08-25T00:18:24.031Z,19.03
2022-08-25T00:19:29.774Z,18.98
2022-08-25T00:20:32.324Z,18.96
2022-08-25T00:21:33.867Z,18.89
2022-08-25T00:22:35.718Z,18.90
2022-08-25T00:23:37.670Z,18.89
2022-08-25T00:24:39.437Z,18.92
2022-08-25T00:25:41.313Z,19.01
2022-08-25T00:26:45.479Z,18.94
2022-08-25T00:27:48.145Z,18.96
2022-08-25T00:28:50.217Z,18.89
2022-08-25T00:29:55.630Z,18.87
2022-08-25T00:30:58.879Z,18.93
2022-08-25T00:32:01.077Z,18.95
2022-08-25T00:33:04.989Z,18.95
2022-08-25T00:34:09.976Z,18.92
2022-08-25T00:35:12.135Z,18.88
2022-08-25T00:36:14.820Z,18.90
2022-08-25T00:37:16.404Z,19.14
2022-08-25T00:38:17.893Z,19.07
2022-08-25T00:39:21.323Z,18.95
2022-08-25T00:40:26.259Z,18.86
2022-08-25T00:41:28.093Z,18.78
2022-08-25T00:42:30.426Z,18.79
2022-08-25T00:43:40.705Z,18.91
2022-08-25T00:44:44.021Z,18.87
2022-08-25T00:45:46.086Z,18.77
2022-08-25T00:46:51.352Z,18.73
2022-08-25T00:47:53.680Z,18.75
2022-08-25T00:49:02.223Z,18.75
2022-08-25T00:50:06.306Z,18.84
2022-08-25T00:51:14.161Z,18.72
2022-08-25T00:52:29.564Z,18.72
2022-08-25T00:53:31.319Z,18.67
2022-08-25T00:54:45.705Z,18.62
2022-08-25T00:55:47.709Z,18.57
2022-08-25T00:56:51.750Z,18.62
2022-08-25T00:57:58.538Z,18.62
2022-08-25T00:59:01.977Z,18.62
2022-08-25T01:00:21.574Z,18.50
2022-08-25T01:01:23.139Z,18.50
2022-08-25T01:02:25.049Z,18.54
2022-08-25T01:03:33.141Z,18.60
2022-08-25T01:04:34.999Z,18.51
2022-08-25T01:05:37.625Z,18.66
2022-08-25T01:06:44.467Z,18.64
2022-08-25T01:07:46.758Z,18.48
2022-08-25T01:08:48.362Z,18.42
2022-08-25T01:09:52.537Z,18.45
2022-08-25T01:10:57.364Z,18.34
2022-08-25T01:11:59.972Z,18.27
2022-08-25T01:13:26.878Z,18.26
2022-08-25T01:14:31.546Z,18.25
2022-08-25T01:15:34.660Z,18.33
2022-08-25T01:16:40.932Z,18.27
2022-08-25T01:17:49.526Z,18.28
2022-08-25T01:18:56.397Z,18.37
2022-08-25T01:19:57.913Z,18.52
2022-08-25T01:21:00.079Z,18.46
2022-08-25T01:22:01.816Z,18.39
2022-08-25T01:23:04.069Z,18.40
2022-08-25T01:24:06.760Z,18.35
2022-08-25T01:25:23.402Z,18.34
2022-08-25T01:26:30.680Z,18.34
2022-08-25T01:27:32.565Z,18.30
2022-08-25T01:28:35.938Z,18.32
2022-08-25T01:29:38.496Z,18.30
2022-08-25T01:30:41.072Z,18.31
2022-08-25T01:31:42.706Z,18.39
2022-08-25T01:32:44.228Z,18.39
2022-08-25T01:33:46.130Z,18.51
2022-08-25T01:34:47.592Z,18.60
2022-08-25T01:35:50.192Z,18.51
2022-08-25T01:36:52.723Z,18.58
2022-08-25T01:37:54.155Z,18.47
2022-08-25T01:38:56.528Z,18.50
2022-08-25T01:39:58.040Z,18.42
2022-08-25T01:40:59.567Z,18.37
2022-08-25T01:42:09.410Z,18.34
2022-08-25T01:43:11.343Z,18.34
2022-08-25T01:44:16.104Z,18.34
2022-08-25T01:45:18.807Z,18.31
2022-08-25T01:46:20.464Z,18.26
2022-08-25T01:47:22.114Z,18.23
2022-08-25T01:48:24.083Z,18.20
2022-08-25T01:49:25.604Z,18.20
2022-08-25T01:50:27.865Z,18.17
2022-08-25T01:51:34.116Z,18.13
2022-08-25T01:52:49.870Z,18.14
2022-08-25T01:53:52.078Z,18.15
2022-08-25T01:54:53.642Z,18.07
2022-08-25T01:56:05.667Z,18.12
2022-08-25T01:57:11.456Z,18.24
2022-08-25T01:58:12.951Z,18.36
2022-08-25T01:59:24.068Z,18.25
2022-08-25T02:00:25.954Z,18.27
2022-08-25T02:01:28.182Z,18.28
2022-08-25T02:02:29.774Z,18.22
2022-08-25T02:03:38.728Z,18.22
2022-08-25T02:04:44.338Z,18.20
2022-08-25T02:05:48.257Z,18.17
2022-08-25T02:06:50.773Z,18.07
2022-08-25T02:07:52.246Z,18.05
2022-08-25T02:08:56.885Z,18.01
2022-08-25T02:09:58.984Z,17.98
2022-08-25T02:11:05.535Z,18.17
2022-08-25T02:12:09.181Z,18.16
2022-08-25T02:13:11.116Z,17.99
2022-08-25T02:14:14.488Z,17.86
2022-08-25T02:15:16.405Z,17.85
2022-08-25T02:16:25.568Z,17.84
2022-08-25T02:17:28.111Z,17.89
2022-08-25T02:18:31.048Z,17.94
2022-08-25T02:19:33.043Z,17.92
2022-08-25T02:20:34.850Z,17.93
2022-08-25T02:21:36.966Z,17.87
2022-08-25T02:22:38.415Z,17.89
2022-08-25T02:23:42.042Z,17.94
2022-08-25T02:24:43.926Z,17.90
2022-08-25T02:25:45.407Z,17.87
2022-08-25T02:26:47.314Z,17.87
2022-08-25T02:27:48.783Z,17.89
2022-08-25T02:28:52.470Z,17.89
2022-08-25T02:29:54.400Z,17.82
2022-08-25T02:31:01.098Z,17.96
2022-08-25T02:32:03.658Z,17.91
2022-08-25T02:33:05.161Z,17.90
2022-08-25T02:34:09.180Z,18.06
2022-08-25T02:35:11.628Z,18.19
2022-08-25T02:36:13.639Z,18.24
2022-08-25T02:37:15.363Z,18.21
2022-08-25T02:38:16.862Z,18.13
2022-08-25T02:39:18.769Z,18.08
2022-08-25T02:40:21.462Z,18.14
2022-08-25T02:41:28.833Z,18.07
2022-08-25T02:42:33.786Z,18.04
2022-08-25T02:43:35.230Z,17.98
2022-08-25T02:44:36.672Z,17.89
2022-08-25T02:45:38.215Z,17.83
2022-08-25T02:46:40.501Z,17.80
2022-08-25T02:47:42.796Z,17.78
2022-08-25T02:48:45.205Z,17.81
2022-08-25T02:49:46.637Z,17.80
2022-08-25T02:50:51.641Z,17.81
2022-08-25T02:51:55.149Z,17.78
2022-08-25T02:52:56.986Z,17.82
2022-08-25T02:54:02.140Z,17.95
2022-08-25T02:55:07.048Z,17.94
2022-08-25T02:56:10.994Z,18.10
2022-08-25T02:57:12.700Z,18.13
2022-08-25T02:58:15.056Z,18.03
2022-08-25T02:59:18.116Z,17.89
2022-08-25T03:00:20.213Z,17.88
2022-08-25T03:01:22.282Z,18.06
2022-08-25T03:02:30.221Z,17.96
2022-08-25T03:03:34.246Z,17.87
2022-08-25T03:04:38.792Z,17.87
2022-08-25T03:05:41.296Z,17.90
2022-08-25T03:06:42.947Z,17.85
2022-08-25T03:07:44.448Z,17.85
2022-08-25T03:08:46.567Z,17.83
2022-08-25T03:09:48.855Z,17.67
2022-08-25T03:10:50.466Z,17.49
2022-08-25T03:11:53.649Z,17.45
2022-08-25T03:12:55.190Z,17.45
2022-08-25T03:13:56.843Z,17.47
2022-08-25T03:14:58.809Z,17.47
2022-08-25T03:16:02.913Z,17.51
2022-08-25T03:17:08.680Z,17.56
2022-08-25T03:18:11.806Z,17.59
2022-08-25T03:19:17.095Z,17.54
2022-08-25T03:20:18.957Z,17.67
2022-08-25T03:21:21.374Z,17.73
2022-08-25T03:22:23.313Z,17.66
2022-08-25T03:23:25.060Z,17.65
2022-08-25T03:24:27.317Z,17.71
2022-08-25T03:25:48.418Z,17.68
2022-08-25T03:26:58.534Z,17.74
2022-08-25T03:28:00.282Z,17.83
2022-08-25T03:29:05.569Z,17.77
2022-08-25T03:30:07.671Z,17.69
2022-08-25T03:31:10.258Z,17.61
2022-08-25T03:32:12.250Z,17.51
2022-08-25T03:33:13.989Z,17.46
2022-08-25T03:34:18.160Z,17.43
2022-08-25T03:35:20.124Z,17.42
2022-08-25T03:36:21.619Z,17.33
2022-08-25T03:37:23.621Z,17.29
2022-08-25T03:38:26.557Z,17.32
2022-08-25T03:39:29.084Z,17.30
2022-08-25T03:40:30.950Z,17.30
2022-08-25T03:41:33.762Z,17.30
2022-08-25T03:42:36.591Z,17.30
2022-08-25T03:43:40.030Z,17.37
2022-08-25T03:44:41.481Z,17.31
2022-08-25T03:45:44.905Z,17.22
2022-08-25T03:46:49.087Z,17.23
2022-08-25T03:47:52.539Z,17.24
2022-08-25T03:48:54.512Z,17.26
2022-08-25T03:49:56.841Z,17.46
2022-08-25T03:50:58.738Z,17.48
2022-08-25T03:52:00.158Z,17.47
2022-08-25T03:53:01.919Z,17.40
2022-08-25T03:54:04.707Z,17.31
2022-08-25T03:55:08.452Z,17.20
2022-08-25T03:56:09.875Z,17.20
2022-08-25T03:57:11.943Z,17.17
2022-08-25T03:58:15.256Z,17.27
2022-08-25T03:59:17.820Z,17.35
2022-08-25T04:00:20.676Z,17.37
2022-08-25T04:01:22.747Z,17.24
2022-08-25T04:02:24.489Z,17.30
2022-08-25T04:03:25.988Z,17.23
2022-08-25T04:04:27.850Z,17.19
2022-08-25T04:05:29.369Z,17.22
2022-08-25T04:06:30.926Z,17.31
2022-08-25T04:07:32.384Z,17.40
2022-08-25T04:08:33.856Z,17.31
2022-08-25T04:09:36.961Z,17.23
2022-08-25T04:10:38.778Z,17.18
2022-08-25T04:11:40.563Z,17.14
2022-08-25T04:12:44.226Z,17.07
2022-08-25T04:13:48.054Z,16.95
2022-08-25T04:14:50.403Z,16.95
2022-08-25T04:15:52.016Z,17.01
2022-08-25T04:16:53.602Z,16.92
2022-08-25T04:17:55.500Z,17.04
2022-08-25T04:18:59.532Z,17.09
2022-08-25T04:20:02.433Z,17.03
2022-08-25T04:21:09.140Z,16.98
2022-08-25T04:22:10.747Z,17.02
2022-08-25T04:23:14.833Z,17.13
2022-08-25T04:24:17.192Z,16.99
2022-08-25T04:25:18.657Z,17.04
2022-08-25T04:26:23.603Z,17.11
2022-08-25T04:27:25.232Z,17.06
2022-08-25T04:28:26.798Z,17.13
2022-08-25T04:29:28.686Z,17.20
2022-08-25T04:30:30.227Z,17.14
2022-08-25T04:31:32.456Z,17.09
2022-08-25T04:32:36.528Z,17.17
2022-08-25T04:33:38.787Z,17.17
2022-08-25T04:34:40.449Z,17.19
2022-08-25T04:35:47.715Z,17.08
2022-08-25T04:36:52.551Z,16.98
2022-08-25T04:37:54.783Z,16.92
2022-08-25T04:38:56.651Z,17.08
2022-08-25T04:39:58.158Z,17.09
2022-08-25T04:41:04.914Z,17.09
2022-08-25T04:42:07.021Z,17.22
2022-08-25T04:43:08.473Z,17.11
2022-08-25T04:44:10.037Z,17.02
2022-08-25T04:45:11.546Z,17.02
2022-08-25T04:46:20.121Z,17.02
2022-08-25T04:47:22.704Z,17.08
2022-08-25T04:48:24.728Z,17.12
2022-08-25T04:49:27.115Z,17.08
2022-08-25T04:50:28.692Z,17.16
2022-08-25T04:51:36.884Z,17.25
2022-08-25T04:52:38.338Z,17.15
2022-08-25T04:53:41.346Z,17.20
2022-08-25T04:54:43.848Z,17.16
2022-08-25T04:55:48.153Z,17.21
2022-08-25T04:56:54.020Z,17.23
2022-08-25T04:57:56.602Z,17.22
2022-08-25T04:59:06.803Z,17.21
2022-08-25T05:00:09.108Z,17.23
2022-08-25T05:01:16.261Z,17.20
2022-08-25T05:02:17.876Z,17.13
2022-08-25T05:03:19.344Z,17.11
2022-08-25T05:04:28.163Z,17.15
2022-08-25T05:05:31.240Z,17.14
2022-08-25T05:06:36.094Z,17.15
2022-08-25T05:07:37.979Z,17.23
2022-08-25T05:08:39.736Z,17.21
2022-08-25T05:09:41.756Z,17.24
2022-08-25T05:10:44.499Z,17.33
2022-08-25T05:11:46.470Z,17.41
2022-08-25T05:12:48.490Z,17.47
2022-08-25T05:13:53.087Z,17.52
2022-08-25T05:14:54.758Z,17.52
2022-08-25T05:16:00.197Z,17.59
2022-08-25T05:17:02.022Z,17.63
2022-08-25T05:18:04.156Z,17.48
2022-08-25T05:19:06.167Z,17.38
2022-08-25T05:20:08.267Z,17.33
2022-08-25T05:21:19.684Z,17.33
2022-08-25T05:22:21.159Z,17.39
2022-08-25T05:23:26.190Z,17.52
2022-08-25T05:24:28.137Z,17.61
2022-08-25T05:25:30.068Z,17.73
2022-08-25T05:26:34.701Z,17.75
2022-08-25T05:27:36.653Z,17.84
2022-08-25T05:28:41.698Z,17.87
2022-08-25T05:29:43.147Z,17.83
2022-08-25T05:30:45.197Z,17.75
2022-08-25T05:31:50.427Z,17.75
2022-08-25T05:32:52.370Z,17.67
2022-08-25T05:33:55.669Z,17.60
2022-08-25T05:34:57.626Z,17.62
2022-08-25T05:35:59.573Z,17.61
2022-08-25T05:37:03.333Z,17.64
2022-08-25T05:38:06.193Z,17.66
2022-08-25T05:39:07.809Z,17.67
2022-08-25T05:40:10.714Z,17.70
2022-08-25T05:41:18.778Z,17.70
2022-08-25T05:42:20.230Z,17.73
2022-08-25T05:43:21.699Z,17.71
2022-08-25T05:44:23.214Z,17.78
2022-08-25T05:45:25.003Z,17.80
2022-08-25T05:46:27.107Z,17.83
2022-08-25T05:47:34.265Z,17.85
2022-08-25T05:48:36.689Z,17.82
2022-08-25T05:49:38.159Z,17.86
2022-08-25T05:50:39.682Z,17.89
2022-08-25T05:51:41.662Z,17.91
2022-08-25T05:52:44.256Z,17.94
2022-08-25T05:53:48.344Z,17.97
2022-08-25T05:54:49.815Z,18.01
2022-08-25T05:55:53.132Z,18.06
2022-08-25T05:56:54.616Z,18.09
2022-08-25T05:57:56.503Z,18.09
2022-08-25T05:58:57.966Z,18.05
2022-08-25T05:59:59.483Z,18.07
2022-08-25T06:01:21.379Z,18.11
2022-08-25T06:02:41.333Z,18.15
2022-08-25T06:03:44.850Z,18.18
2022-08-25T06:04:46.549Z,18.20
2022-08-25T06:05:48.315Z,18.22
2022-08-25T06:06:53.396Z,18.21
2022-08-25T06:07:55.576Z,18.27
2022-08-25T06:08:57.387Z,18.33
2022-08-25T06:09:58.867Z,18.38
2022-08-25T06:11:00.526Z,18.42
2022-08-25T06:12:02.261Z,18.47
2022-08-25T06:13:04.254Z,18.52
2022-08-25T06:14:10.173Z,18.54
2022-08-25T06:15:13.803Z,18.57
2022-08-25T06:16:15.286Z,18.64
2022-08-25T06:17:17.427Z,18.69
2022-08-25T06:18:18.880Z,18.76
2022-08-25T06:19:21.521Z,18.79
2022-08-25T06:20:26.768Z,18.84
2022-08-25T06:21:29.032Z,18.88
2022-08-25T06:22:30.483Z,18.93
2022-08-25T06:23:31.932Z,19.01
2022-08-25T06:24:34.155Z,19.08
2022-08-25T06:25:35.660Z,19.15
2022-08-25T06:26:37.768Z,19.21
2022-08-25T06:27:39.379Z,19.28
2022-08-25T06:28:41.292Z,19.34
2022-08-25T06:29:43.299Z,19.42
2022-08-25T06:30:44.965Z,19.47
2022-08-25T06:31:46.724Z,19.54
2022-08-25T06:32:49.186Z,19.59
2022-08-25T06:33:50.865Z,19.65
2022-08-25T06:34:52.780Z,19.72
2022-08-25T06:35:59.475Z,19.78
2022-08-25T06:37:01.180Z,19.83
2022-08-25T06:38:02.794Z,19.89
2022-08-25T06:39:04.668Z,19.94
2022-08-25T06:40:07.850Z,19.98
2022-08-25T06:41:10.812Z,19.91
2022-08-25T06:42:12.266Z,19.87
2022-08-25T06:43:14.121Z,19.88
2022-08-25T06:44:15.769Z,20.01
2022-08-25T06:45:18.350Z,20.13
2022-08-25T06:46:34.718Z,19.94
2022-08-25T06:47:38.318Z,19.93
2022-08-25T06:48:40.944Z,19.94
2022-08-25T06:49:43.756Z,19.90
2022-08-25T06:50:45.272Z,19.88
2022-08-25T06:51:47.128Z,19.87
2022-08-25T06:52:48.593Z,20.02
2022-08-25T06:53:51.313Z,20.13
2022-08-25T06:54:53.269Z,20.27
2022-08-25T06:55:58.295Z,20.43
2022-08-25T06:56:59.754Z,20.51
2022-08-25T06:58:03.257Z,20.57
2022-08-25T06:59:07.922Z,20.58
2022-08-25T07:00:12.408Z,20.71
2022-08-25T07:01:23.640Z,20.84
2022-08-25T07:02:27.940Z,21.01
2022-08-25T07:03:30.820Z,21.01
2022-08-25T07:04:36.771Z,20.88
2022-08-25T07:05:43.732Z,20.88
2022-08-25T07:06:45.831Z,21.02
2022-08-25T07:07:47.931Z,21.15
2022-08-25T07:08:49.689Z,21.30
2022-08-25T07:09:51.558Z,21.41
2022-08-25T07:10:53.120Z,21.45
2022-08-25T07:11:54.705Z,21.47
2022-08-25T07:12:56.632Z,21.61
2022-08-25T07:13:58.258Z,21.72
2022-08-25T07:15:17.120Z,21.81
2022-08-25T07:16:21.479Z,22.00
2022-08-25T07:17:23.791Z,21.96
2022-08-25T07:18:27.086Z,21.97
2022-08-25T07:19:28.611Z,21.99
2022-08-25T07:20:31.438Z,22.09
2022-08-25T07:21:35.558Z,22.10
2022-08-25T07:22:37.876Z,22.04
2022-08-25T07:23:41.052Z,22.05
2022-08-25T07:24:42.581Z,22.15
2022-08-25T07:25:44.542Z,22.24
2022-08-25T07:26:46.791Z,22.39
2022-08-25T07:27:48.374Z,22.44
2022-08-25T07:28:50.780Z,22.49
2022-08-25T07:29:54.004Z,22.64
2022-08-25T07:31:01.296Z,22.66
2022-08-25T07:32:04.507Z,22.59
2022-08-25T07:33:06.913Z,22.54
2022-08-25T07:34:28.459Z,22.75
2022-08-25T07:35:37.386Z,22.98
2022-08-25T07:36:39.330Z,23.17
2022-08-25T07:37:50.815Z,23.29
2022-08-25T07:38:53.419Z,23.31
2022-08-25T07:39:57.149Z,23.47
2022-08-25T07:41:05.025Z,23.45
2022-08-25T07:42:11.973Z,23.25
2022-08-25T07:43:13.738Z,23.54
2022-08-25T07:44:15.291Z,23.70
2022-08-25T07:45:21.008Z,23.68
2022-08-25T07:46:23.142Z,23.82
2022-08-25T07:47:24.724Z,23.82
2022-08-25T07:48:26.655Z,23.75
2022-08-25T07:49:34.974Z,23.92
2022-08-25T07:50:40.494Z,24.10
2022-08-25T07:51:44.210Z,24.10
2022-08-25T07:53:03.586Z,24.23
2022-08-25T07:54:06.025Z,24.61
2022-08-25T07:55:08.357Z,24.66
2022-08-25T07:56:15.975Z,24.92
2022-08-25T07:57:17.466Z,25.00
2022-08-25T07:58:18.907Z,24.78
2022-08-25T07:59:20.378Z,24.58
2022-08-25T08:00:22.016Z,24.27
2022-08-25T08:01:26.202Z,24.32
2022-08-25T08:02:27.813Z,24.47
2022-08-25T08:03:45.192Z,24.19
2022-08-25T08:04:53.576Z,24.45
2022-08-25T08:05:56.524Z,24.64
2022-08-25T08:06:58.374Z,24.84
2022-08-25T08:08:02.400Z,25.02
2022-08-25T08:09:04.402Z,25.12
2022-08-25T08:10:37.073Z,25.29
2022-08-25T08:11:35.136Z,25.04
2022-08-25T08:12:38.550Z,25.19
2022-08-25T08:13:41.518Z,25.42
2022-08-25T08:14:45.177Z,25.62
2022-08-25T08:15:47.845Z,25.73
2022-08-25T08:16:50.042Z,25.63
2022-08-25T08:17:51.567Z,25.57
2022-08-25T08:18:53.630Z,25.67
2022-08-25T08:19:55.122Z,25.87
2022-08-25T08:20:56.648Z,25.79
2022-08-25T08:21:58.622Z,25.37
2022-08-25T08:23:00.237Z,25.39
2022-08-25T08:24:05.024Z,25.33
2022-08-25T08:25:18.718Z,25.65
2022-08-25T08:26:31.665Z,25.89
2022-08-25T08:27:39.532Z,25.92
2022-08-25T08:28:41.098Z,26.09
2022-08-25T08:29:42.580Z,26.07
2022-08-25T08:30:52.754Z,26.18
2022-08-25T08:31:55.291Z,26.39
2022-08-25T08:33:09.708Z,26.44
2022-08-25T08:34:12.354Z,26.03
2022-08-25T08:35:15.446Z,25.77
2022-08-25T08:36:17.309Z,26.07
2022-08-25T08:37:22.817Z,26.23
2022-08-25T08:38:27.205Z,26.32
2022-08-25T08:39:30.079Z,26.36
2022-08-25T08:40:34.546Z,26.51
2022-08-25T08:42:11.681Z,26.42
2022-08-25T08:43:19.153Z,26.07
2022-08-25T08:44:28.135Z,26.31
2022-08-25T08:45:53.902Z,26.68
2022-08-25T08:47:22.487Z,26.94
2022-08-25T08:48:34.792Z,26.79
2022-08-25T08:50:04.082Z,26.80
2022-08-25T08:51:24.584Z,26.80
2022-08-25T08:52:49.904Z,26.91
2022-08-25T08:54:25.082Z,27.09
2022-08-25T08:55:32.717Z,27.19
2022-08-25T08:56:45.216Z,27.31
2022-08-25T08:57:52.251Z,27.33
2022-08-25T08:59:14.215Z,27.28
2022-08-25T09:00:15.902Z,26.94
2022-08-25T09:01:25.548Z,26.65
2022-08-25T09:02:38.559Z,26.28
2022-08-25T09:03:59.956Z,26.09
2022-08-25T09:05:06.935Z,26.05
2022-08-25T09:06:24.052Z,26.11
2022-08-25T09:07:55.092Z,26.03
2022-08-25T09:09:00.010Z,26.20
2022-08-25T09:10:04.894Z,26.15
2022-08-25T09:11:18.935Z,26.07
2022-08-25T09:12:47.464Z,26.15
2022-08-25T09:14:05.582Z,26.09
2022-08-25T09:15:13.847Z,25.99
2022-08-25T09:16:52.524Z,26.13
2022-08-25T09:18:31.150Z,26.17
2022-08-25T09:19:54.562Z,26.30
2022-08-25T09:20:56.028Z,26.32
2022-08-25T09:22:35.024Z,26.40
2022-08-25T09:23:55.592Z,26.28
2022-08-25T09:25:48.817Z,26.15
2022-08-25T09:27:17.687Z,26.26
2022-08-25T09:28:32.831Z,26.04
2022-08-25T09:30:10.147Z,26.21
2022-08-25T09:31:31.811Z,26.39
2022-08-25T09:32:42.526Z,26.46
2022-08-25T09:33:55.517Z,26.28
2022-08-25T09:34:57.684Z,26.14
2022-08-25T09:35:59.389Z,26.10
2022-08-25T09:37:06.312Z,26.24
2022-08-25T09:38:17.953Z,26.17
2022-08-25T09:39:20.614Z,26.02
2022-08-25T09:40:25.026Z,25.92
2022-08-25T09:41:56.004Z,25.85
2022-08-25T09:42:59.793Z,25.87
2022-08-25T09:44:01.412Z,25.75
2022-08-25T09:45:03.946Z,25.81
2022-08-25T09:46:05.409Z,25.87
2022-08-25T09:47:23.405Z,25.92
2022-08-25T09:48:41.036Z,26.04
2022-08-25T09:49:47.701Z,26.23
2022-08-25T09:50:52.607Z,26.35
2022-08-25T09:51:54.099Z,26.16
2022-08-25T09:52:55.596Z,26.23
2022-08-25T09:54:01.226Z,26.15
2022-08-25T09:55:13.197Z,26.26
2022-08-25T09:56:21.427Z,26.15
2022-08-25T09:57:57.067Z,26.01
2022-08-25T09:59:36.119Z,25.88
2022-08-25T10:00:38.517Z,25.79
2022-08-25T10:01:53.415Z,25.82
2022-08-25T10:03:06.417Z,25.81
2022-08-25T10:04:13.961Z,25.84
2022-08-25T10:05:26.481Z,25.88
2022-08-25T10:06:33.255Z,25.86
2022-08-25T10:07:48.076Z,25.88
2022-08-25T10:08:58.644Z,25.71
2022-08-25T10:10:16.093Z,25.70
2022-08-25T10:11:38.312Z,25.74
2022-08-25T10:12:43.058Z,26.05
2022-08-25T10:13:51.838Z,26.13
2022-08-25T10:14:54.545Z,26.08
2022-08-25T10:16:20.066Z,26.03
2022-08-25T10:17:33.535Z,26.03
2022-08-25T10:18:35.184Z,26.12
2022-08-25T10:19:36.671Z,26.01
2022-08-25T10:20:38.429Z,25.93
2022-08-25T10:22:04.243Z,25.91
2022-08-25T10:23:13.994Z,25.79
2022-08-25T10:24:15.569Z,25.83
2022-08-25T10:25:26.904Z,25.72
2022-08-25T10:27:00.746Z,25.65
2022-08-25T10:28:17.395Z,25.64
2022-08-25T10:29:28.050Z,25.75
2022-08-25T10:30:57.476Z,25.76
2022-08-25T10:32:19.260Z,25.77
2022-08-25T10:33:31.701Z,25.62
2022-08-25T10:34:44.772Z,25.51
2022-08-25T10:35:54.815Z,25.62
2022-08-25T10:37:18.724Z,25.65
2022-08-25T10:38:54.188Z,25.60
2022-08-25T10:40:16.493Z,25.77
2022-08-25T10:41:28.903Z,25.73
2022-08-25T10:42:43.568Z,26.00
2022-08-25T10:44:33.300Z,26.34
2022-08-25T10:45:43.476Z,26.08
2022-08-25T10:46:55.841Z,26.11
2022-08-25T10:48:05.626Z,26.09
2022-08-25T10:49:19.240Z,26.04
2022-08-25T10:50:33.535Z,26.01
2022-08-25T10:52:21.736Z,26.05
2022-08-25T10:53:26.862Z,26.03
2022-08-25T10:54:40.851Z,26.26
2022-08-25T10:55:45.207Z,26.27
2022-08-25T10:57:01.463Z,26.29
2022-08-25T10:58:18.325Z,26.25
2022-08-25T10:59:48.868Z,26.36
2022-08-25T11:01:08.655Z,26.27
2022-08-25T11:02:48.456Z,26.30
2022-08-25T11:03:58.910Z,26.30
2022-08-25T11:05:12.691Z,26.33
2022-08-25T11:06:54.643Z,26.31
2022-08-25T11:08:19.265Z,26.33
2022-08-25T11:09:25.849Z,26.37
2022-08-25T11:10:41.231Z,26.35
2022-08-25T11:11:52.406Z,26.36
2022-08-25T11:13:00.764Z,26.40
2022-08-25T11:14:11.247Z,26.38
2022-08-25T11:15:20.392Z,26.35
2022-08-25T11:16:35.676Z,26.60
2022-08-25T11:17:46.053Z,26.65
2022-08-25T11:19:05.595Z,26.78
2022-08-25T11:20:19.839Z,26.70
2022-08-25T11:21:53.534Z,26.64
2022-08-25T11:23:19.750Z,26.76
2022-08-25T11:24:36.109Z,26.85
2022-08-25T11:25:49.691Z,26.76
2022-08-25T11:26:56.096Z,26.68
2022-08-25T11:28:03.712Z,26.68
2022-08-25T11:29:21.870Z,26.73
2022-08-25T11:30:24.106Z,26.72
2022-08-25T11:31:28.350Z,26.77
2022-08-25T11:32:33.388Z,26.74
2022-08-25T11:33:35.427Z,26.69
2022-08-25T11:34:43.595Z,26.75
2022-08-25T11:35:59.533Z,26.58
2022-08-25T11:37:29.749Z,26.35
2022-08-25T11:38:38.613Z,26.35
2022-08-25T11:40:05.755Z,26.51
2022-08-25T11:41:29.373Z,26.57
2022-08-25T11:42:59.134Z,26.78
2022-08-25T11:44:32.472Z,26.63
2022-08-25T11:45:46.518Z,26.62
2022-08-25T11:47:26.539Z,26.58
2022-08-25T11:48:43.168Z,26.62
2022-08-25T11:49:52.733Z,26.71
2022-08-25T11:50:56.807Z,26.66
2022-08-25T11:52:02.970Z,26.75
2022-08-25T11:53:26.712Z,26.69
2022-08-25T11:54:36.628Z,26.60
2022-08-25T11:55:38.030Z,26.64
2022-08-25T11:56:42.188Z,26.58
2022-08-25T11:57:44.905Z,26.50
2022-08-25T11:58:51.784Z,26.67
2022-08-25T11:59:53.239Z,26.52
2022-08-25T12:00:58.802Z,26.59
2022-08-25T12:02:01.606Z,26.63
2022-08-25T12:03:26.420Z,26.68
2022-08-25T12:04:44.164Z,26.66
2022-08-25T12:05:46.994Z,26.70
2022-08-25T12:07:07.210Z,26.63
2022-08-25T12:08:27.397Z,26.60
2022-08-25T12:09:28.910Z,26.49
2022-08-25T12:10:53.531Z,26.64
2022-08-25T12:11:58.483Z,26.63
2022-08-25T12:13:04.830Z,26.52
2022-08-25T12:14:21.568Z,26.39
2022-08-25T12:15:25.479Z,26.58
2022-08-25T12:16:35.999Z,26.51
2022-08-25T12:17:39.782Z,26.44
2022-08-25T12:18:46.048Z,26.70
2022-08-25T12:19:56.790Z,26.85
2022-08-25T12:20:58.210Z,26.89
2022-08-25T12:22:03.631Z,26.91
2022-08-25T12:23:05.776Z,27.00
2022-08-25T12:24:13.068Z,27.02
2022-08-25T12:25:39.124Z,26.89
2022-08-25T12:26:52.608Z,27.02
2022-08-25T12:28:15.415Z,27.08
2022-08-25T12:29:30.416Z,27.26
2022-08-25T12:30:39.901Z,27.19
2022-08-25T12:32:04.881Z,27.09
2022-08-25T12:33:34.566Z,27.20
2022-08-25T12:34:48.233Z,27.40
2022-08-25T12:36:02.679Z,27.52
2022-08-25T12:37:18.223Z,27.62
2022-08-25T12:38:31.800Z,27.63
2022-08-25T12:39:51.853Z,27.68
2022-08-25T12:41:02.988Z,27.54
2022-08-25T12:42:12.187Z,27.66
2022-08-25T12:43:26.885Z,27.72
2022-08-25T12:44:42.717Z,27.80
2022-08-25T12:45:51.951Z,27.83
2022-08-25T12:47:13.602Z,28.04
2022-08-25T12:48:27.571Z,28.35
2022-08-25T12:49:29.505Z,28.43
2022-08-25T12:50:36.551Z,28.54
2022-08-25T12:51:48.540Z,28.56
2022-08-25T12:52:50.956Z,28.52
2022-08-25T12:54:44.363Z,28.47
2022-08-25T12:55:57.607Z,28.26
2022-08-25T12:57:03.112Z,28.23
2022-08-25T12:58:06.756Z,28.00
2022-08-25T12:59:18.212Z,28.10
2022-08-25T13:01:55.137Z,28.65
2022-08-25T13:03:49.584Z,28.88
2022-08-25T13:05:06.644Z,28.72
2022-08-25T13:06:08.267Z,28.71
2022-08-25T13:07:29.303Z,28.93
2022-08-25T13:08:51.852Z,28.82
2022-08-25T13:10:20.984Z,28.95
2022-08-25T13:11:38.736Z,29.05
2022-08-25T13:12:55.444Z,29.28
2022-08-25T13:14:33.317Z,29.23
2022-08-25T13:15:41.281Z,28.96
2022-08-25T13:16:57.681Z,28.91
2022-08-25T13:18:20.128Z,28.76
2022-08-25T13:19:22.833Z,28.84
2022-08-25T13:20:25.765Z,28.75
2022-08-25T13:21:37.216Z,28.90
2022-08-25T13:22:39.262Z,28.86
2022-08-25T13:23:43.904Z,29.04
2022-08-25T13:24:51.018Z,28.88
2022-08-25T13:25:53.904Z,29.00
2022-08-25T13:27:01.636Z,28.94
2022-08-25T13:28:06.647Z,29.11
2022-08-25T13:29:17.896Z,28.89
2022-08-25T13:30:30.193Z,29.17
2022-08-25T13:31:31.748Z,29.37
2022-08-25T13:32:36.559Z,29.46
2022-08-25T13:33:38.359Z,29.46
2022-08-25T13:34:43.165Z,29.66
2022-08-25T13:36:12.661Z,29.77
2022-08-25T13:37:29.767Z,29.80
2022-08-25T13:38:31.984Z,29.77
2022-08-25T13:39:54.940Z,29.63
2022-08-25T13:41:08.210Z,29.72
2022-08-25T13:42:16.894Z,29.52
2022-08-25T13:43:27.479Z,29.52
2022-08-25T13:44:32.018Z,29.37
2022-08-25T13:45:41.053Z,29.42
2022-08-25T13:46:44.026Z,29.38
2022-08-25T13:47:46.843Z,29.36
2022-08-25T13:48:50.076Z,29.29
2022-08-25T13:49:51.936Z,29.39
2022-08-25T13:51:09.073Z,29.46
2022-08-25T13:52:29.260Z,29.55
2022-08-25T13:53:31.726Z,29.54
2022-08-25T13:54:41.156Z,29.53
2022-08-25T13:55:55.212Z,29.45
2022-08-25T13:57:15.517Z,29.68
2022-08-25T13:58:38.948Z,29.51
2022-08-25T13:59:51.227Z,29.34
2022-08-25T14:01:48.413Z,29.54
2022-08-25T14:02:53.116Z,29.48
2022-08-25T14:04:17.395Z,29.65
2022-08-25T14:05:38.054Z,29.78
2022-08-25T14:06:39.567Z,29.47
2022-08-25T14:07:46.499Z,29.42
2022-08-25T14:09:05.002Z,29.49
2022-08-25T14:10:30.311Z,29.25
2022-08-25T14:11:54.491Z,29.33
2022-08-25T14:13:10.160Z,29.18
2022-08-25T14:14:33.708Z,29.25
2022-08-25T14:15:35.456Z,29.25
2022-08-25T14:16:47.298Z,29.26
2022-08-25T14:18:19.834Z,29.18
2022-08-25T14:19:23.919Z,29.08
2022-08-25T14:20:29.394Z,29.37
2022-08-25T14:21:33.547Z,29.49
2022-08-25T14:22:37.222Z,29.58
2022-08-25T14:23:43.686Z,29.45
2022-08-25T14:24:45.214Z,29.53
2022-08-25T14:25:49.491Z,29.43
2022-08-25T14:26:54.636Z,29.59
2022-08-25T14:28:16.329Z,29.79
2022-08-25T14:29:17.943Z,29.90
2022-08-25T14:30:28.904Z,29.91
2022-08-25T14:31:35.801Z,30.04